createdAt,value
2022-09-18T00:01:32.782Z,1.27
2022-09-18T00:04:06.074Z,3.42
2022-09-18T00:06:38.194Z,2.08
2022-09-18T00:09:10.135Z,2.17
2022-09-18T00:11:42.725Z,3.08
2022-09-18T00:14:15.238Z,1.85
2022-09-18T00:16:43.025Z,2.05
2022-09-18T00:19:11.617Z,3.92
2022-09-18T00:21:46.239Z,2.60
2022-09-18T00:24:14.671Z,3.08
2022-09-18T00:26:41.472Z,3.72
2022-09-18T00:29:08.326Z,3.78
2022-09-18T00:31:36.331Z,2.90
2022-09-18T00:34:08.479Z,1.80
2022-09-18T00:36:38.277Z,2.05
2022-09-18T00:39:07.542Z,2.95
2022-09-18T00:41:41.916Z,1.88
2022-09-18T00:44:44.614Z,3.03
2022-09-18T00:47:11.382Z,3.38
2022-09-18T00:49:44.496Z,2.97
2022-09-18T00:52:14.498Z,3.28
2022-09-18T00:54:47.399Z,3.03
2022-09-18T00:57:27.372Z,6.00
2022-09-18T00:59:55.148Z,6.80
2022-09-18T01:02:22.168Z,4.50
2022-09-18T01:04:50.769Z,9.35
2022-09-18T01:07:57.336Z,5.20
2022-09-18T01:10:43.663Z,6.60
2022-09-18T01:13:29.194Z,6.70
2022-09-18T01:16:04.933Z,5.07
2022-09-18T01:18:54.567Z,5.43
2022-09-18T01:22:02.355Z,5.30
2022-09-18T01:24:59.887Z,6.25
2022-09-18T01:27:58.654Z,5.40
2022-09-18T01:30:25.652Z,6.43
2022-09-18T01:33:06.930Z,4.85
2022-09-18T01:35:48.130Z,5.32
2022-09-18T01:38:27.411Z,4.18
2022-09-18T01:41:02.683Z,6.03
2022-09-18T01:46:08.856Z,5.35
2022-09-18T01:48:58.376Z,6.40
2022-09-18T01:52:12.672Z,7.05
2022-09-18T01:54:45.884Z,6.80
2022-09-18T01:57:29.512Z,3.72
2022-09-18T02:00:07.954Z,6.95
2022-09-18T02:02:55.148Z,4.07
2022-09-18T02:05:31.644Z,16.88
2022-09-18T02:08:15.680Z,6.07
2022-09-18T02:10:51.295Z,8.15
2022-09-18T02:13:27.406Z,5.13
2022-09-18T02:16:02.658Z,4.90
2022-09-18T02:18:40.215Z,8.57
2022-09-18T02:21:20.685Z,4.47
2022-09-18T02:23:48.517Z,5.45
2022-09-18T02:26:19.481Z,5.97
2022-09-18T02:28:49.273Z,8.07
2022-09-18T02:31:16.723Z,4.78
2022-09-18T02:33:43.809Z,6.25
2022-09-18T02:36:22.855Z,4.28
2022-09-18T02:39:22.249Z,8.50
2022-09-18T02:42:01.166Z,4.63
2022-09-18T02:44:47.671Z,4.97
2022-09-18T02:47:45.192Z,3.95
2022-09-18T02:50:42.491Z,3.55
2022-09-18T02:53:28.527Z,7.88
2022-09-18T02:56:46.005Z,6.55
2022-09-18T02:59:39.817Z,5.10
2022-09-18T03:02:09.200Z,6.63
2022-09-18T03:04:40.984Z,9.20
2022-09-18T03:07:14.536Z,12.93
2022-09-18T03:09:43.641Z,17.85
2022-09-18T03:12:11.807Z,25.60
2022-09-18T03:14:41.225Z,18.77
2022-09-18T03:17:09.442Z,18.13
2022-09-18T03:19:36.329Z,14.48
2022-09-18T03:22:03.567Z,23.65
2022-09-18T03:24:34.270Z,17.60
2022-09-18T03:27:02.964Z,31.58
2022-09-18T03:29:30.080Z,23.48
2022-09-18T03:31:57.705Z,22.98
2022-09-18T03:34:24.896Z,17.55
2022-09-18T03:36:51.824Z,24.35
2022-09-18T03:39:18.735Z,16.08
2022-09-18T03:41:46.930Z,19.90
2022-09-18T03:44:13.861Z,26.08
2022-09-18T03:46:42.578Z,20.60
2022-09-18T03:49:09.514Z,16.25
2022-09-18T03:51:39.186Z,17.85
2022-09-18T03:54:07.172Z,16.65
2022-09-18T03:56:58.501Z,18.00
2022-09-18T03:59:36.885Z,19.63
2022-09-18T04:02:30.038Z,19.08
2022-09-18T04:05:15.371Z,21.75
2022-09-18T04:08:08.383Z,24.77
2022-09-18T04:10:55.564Z,13.90
2022-09-18T04:13:23.592Z,19.58
2022-09-18T04:15:50.520Z,15.32
2022-09-18T04:18:18.327Z,16.23
2022-09-18T04:20:45.748Z,15.32
2022-09-18T04:23:14.380Z,12.48
2022-09-18T04:25:42.982Z,18.05
2022-09-18T04:28:11.242Z,15.32
2022-09-18T04:30:41.417Z,15.30
2022-09-18T04:33:08.507Z,18.92
2022-09-18T04:35:35.501Z,19.92
2022-09-18T04:38:02.448Z,18.75
2022-09-18T04:40:30.119Z,15.07
2022-09-18T04:42:57.170Z,16.38
2022-09-18T04:45:24.106Z,15.90
2022-09-18T04:47:51.820Z,18.42
2022-09-18T04:50:20.647Z,19.98
2022-09-18T04:53:08.228Z,13.73
2022-09-18T04:55:35.113Z,11.77
2022-09-18T04:58:02.131Z,19.77
2022-09-18T05:00:30.091Z,15.63
2022-09-18T05:03:00.057Z,12.18
2022-09-18T05:05:29.060Z,19.20
2022-09-18T05:08:03.981Z,14.32
2022-09-18T05:10:31.537Z,18.23
2022-09-18T05:12:58.653Z,15.45
2022-09-18T05:15:27.846Z,14.60
2022-09-18T05:18:07.722Z,17.38
2022-09-18T05:20:36.394Z,11.90
2022-09-18T05:23:07.128Z,14.88
2022-09-18T05:25:36.238Z,15.77
2022-09-18T05:28:04.294Z,15.23
2022-09-18T05:30:43.139Z,14.77
2022-09-18T05:33:11.932Z,13.77
2022-09-18T05:35:40.680Z,17.00
2022-09-18T05:38:08.790Z,9.18
2022-09-18T05:40:39.544Z,10.88
2022-09-18T05:43:07.318Z,15.07
2022-09-18T05:45:35.695Z,11.35
2022-09-18T05:48:08.637Z,11.95
2022-09-18T05:50:37.235Z,10.88
2022-09-18T05:53:13.831Z,12.50
2022-09-18T05:55:55.616Z,15.52
2022-09-18T05:58:22.492Z,17.38
2022-09-18T06:00:52.481Z,18.63
2022-09-18T06:03:26.285Z,7.80
2022-09-18T06:05:55.537Z,9.50
2022-09-18T06:08:23.066Z,14.63
2022-09-18T06:10:50.412Z,15.07
2022-09-18T06:13:18.609Z,16.40
2022-09-18T06:15:54.385Z,11.38
2022-09-18T06:18:34.014Z,14.35
2022-09-18T06:21:02.383Z,12.07
2022-09-18T06:23:31.091Z,11.80
2022-09-18T06:26:15.847Z,10.05
2022-09-18T06:28:43.777Z,10.65
2022-09-18T06:31:10.945Z,10.40
2022-09-18T06:33:52.331Z,10.98
2022-09-18T06:36:19.452Z,14.85
2022-09-18T06:39:03.347Z,9.77
2022-09-18T06:41:30.316Z,11.27
2022-09-18T06:43:57.358Z,14.90
2022-09-18T06:46:38.158Z,10.70
2022-09-18T06:49:16.490Z,14.90
2022-09-18T06:51:48.500Z,11.05
2022-09-18T06:54:17.338Z,11.75
2022-09-18T06:56:46.136Z,18.15
2022-09-18T06:59:13.951Z,10.32
2022-09-18T07:01:41.176Z,13.40
2022-09-18T07:04:16.566Z,10.10
2022-09-18T07:06:46.170Z,16.15
2022-09-18T07:09:14.717Z,15.75
2022-09-18T07:11:53.900Z,8.48
2022-09-18T07:14:27.962Z,7.30
2022-09-18T07:17:00.197Z,10.48
2022-09-18T07:19:27.816Z,6.88
2022-09-18T07:21:54.644Z,8.57
2022-09-18T07:24:21.606Z,7.75
2022-09-18T07:26:48.510Z,7.43
2022-09-18T07:29:15.346Z,8.63
2022-09-18T07:31:42.223Z,11.63
2022-09-18T07:34:28.681Z,8.13
2022-09-18T07:36:55.534Z,11.25
2022-09-18T07:39:25.050Z,7.05
2022-09-18T07:42:27.276Z,9.60
2022-09-18T07:44:55.238Z,8.35
2022-09-18T07:47:22.366Z,10.27
2022-09-18T07:49:50.793Z,12.80
2022-09-18T07:52:25.753Z,10.82
2022-09-18T07:54:52.755Z,12.57
2022-09-18T07:57:28.108Z,9.18
2022-09-18T08:00:10.854Z,5.45
2022-09-18T08:02:43.782Z,3.45
2022-09-18T08:05:18.319Z,6.47
2022-09-18T08:07:56.576Z,9.65
2022-09-18T08:13:34.097Z,5.63
2022-09-18T08:16:10.005Z,10.10
2022-09-18T08:19:13.044Z,4.78
2022-09-18T08:21:46.077Z,8.05
2022-09-18T08:24:17.468Z,9.32
2022-09-18T08:26:45.689Z,10.95
2022-09-18T08:29:19.255Z,9.00
2022-09-18T08:31:56.776Z,7.28
2022-09-18T08:34:24.351Z,10.43
2022-09-18T08:36:51.541Z,9.55
2022-09-18T08:39:25.629Z,7.07
2022-09-18T08:42:51.788Z,10.02
2022-09-18T08:45:18.651Z,9.63
2022-09-18T08:47:59.036Z,7.82
2022-09-18T08:50:38.355Z,6.82
2022-09-18T08:53:32.009Z,9.30
2022-09-18T08:56:25.579Z,7.07
2022-09-18T08:59:27.586Z,5.85
2022-09-18T09:03:02.702Z,5.70
2022-09-18T09:05:43.220Z,9.10
2022-09-18T09:08:57.924Z,5.68
2022-09-18T09:12:14.472Z,4.87
2022-09-18T09:15:25.639Z,7.82
2022-09-18T09:18:23.501Z,6.28
2022-09-18T09:21:12.125Z,8.50
2022-09-18T09:24:17.089Z,6.70
2022-09-18T09:27:27.642Z,6.50
2022-09-18T09:30:20.007Z,6.32
2022-09-18T09:33:33.331Z,5.60
2022-09-18T09:36:27.161Z,6.40
2022-09-18T09:39:24.440Z,6.95
2022-09-18T09:42:14.838Z,10.20
2022-09-18T09:44:50.305Z,7.80
2022-09-18T09:47:34.024Z,6.82
2022-09-18T09:50:19.830Z,6.80
2022-09-18T09:52:47.782Z,6.38
2022-09-18T09:55:32.120Z,6.10
2022-09-18T09:58:27.125Z,7.40
2022-09-18T10:01:31.020Z,8.43
2022-09-18T10:04:18.788Z,6.68
2022-09-18T10:07:05.526Z,6.88
2022-09-18T10:09:54.465Z,6.90
2022-09-18T10:12:44.282Z,4.40
2022-09-18T10:15:25.861Z,6.68
2022-09-18T10:18:00.966Z,5.07
2022-09-18T10:20:31.694Z,5.43
2022-09-18T10:23:09.882Z,8.43
2022-09-18T10:25:50.811Z,4.00
2022-09-18T10:28:18.078Z,7.05
2022-09-18T10:31:04.020Z,7.30
2022-09-18T10:33:50.142Z,2.47
2022-09-18T10:36:41.326Z,6.38
2022-09-18T10:39:28.064Z,3.97
2022-09-18T10:42:07.099Z,5.15
2022-09-18T10:44:43.289Z,2.90
2022-09-18T10:47:38.237Z,4.90
2022-09-18T10:50:14.257Z,6.45
2022-09-18T10:52:46.483Z,3.97
2022-09-18T10:55:29.352Z,4.88
2022-09-18T10:57:59.917Z,4.25
2022-09-18T11:00:29.940Z,3.85
2022-09-18T11:03:23.864Z,6.10
2022-09-18T11:06:30.220Z,4.30
2022-09-18T11:09:09.412Z,4.18
2022-09-18T11:11:45.077Z,5.28
2022-09-18T11:15:01.164Z,6.55
2022-09-18T11:17:33.238Z,4.00
2022-09-18T11:20:06.302Z,7.25
2022-09-18T11:22:45.913Z,3.88
2022-09-18T11:25:26.549Z,3.53
2022-09-18T11:38:00.111Z,5.53
2022-09-18T11:46:19.550Z,6.53
2022-09-18T11:49:07.978Z,4.20
2022-09-18T11:52:05.493Z,7.63
2022-09-18T11:55:01.199Z,5.80
2022-09-18T11:57:57.197Z,3.85
2022-09-18T12:00:34.138Z,6.78
2022-09-18T12:03:22.977Z,8.18
2022-09-18T12:06:31.349Z,4.65
2022-09-18T12:09:23.496Z,2.90
2022-09-18T12:12:46.935Z,4.45
2022-09-18T12:15:25.299Z,3.92
2022-09-18T12:18:08.485Z,5.18
2022-09-18T12:20:58.151Z,2.85
2022-09-18T12:28:47.502Z,4.13
2022-09-18T12:31:32.498Z,4.47
2022-09-18T12:42:53.434Z,1.38
2022-09-18T12:45:47.893Z,3.95
2022-09-18T12:48:57.330Z,2.33
2022-09-18T12:52:27.548Z,3.03
2022-09-18T12:55:33.748Z,3.33
2022-09-18T12:59:14.374Z,3.65
2022-09-18T13:02:15.087Z,2.72
2022-09-18T13:05:21.172Z,2.55
2022-09-18T13:10:34.082Z,3.03
2022-09-18T13:13:49.968Z,5.82
2022-09-18T13:16:23.431Z,4.10
2022-09-18T13:19:01.871Z,4.25
2022-09-18T13:21:41.713Z,4.95
2022-09-18T13:24:17.453Z,3.25
2022-09-18T13:26:47.686Z,2.15
2022-09-18T13:29:51.393Z,3.17
2022-09-18T13:32:24.436Z,3.63
2022-09-18T13:44:38.477Z,3.45
2022-09-18T13:47:15.386Z,2.55
2022-09-18T13:49:57.016Z,4.30
2022-09-18T13:52:35.627Z,2.97
2022-09-18T13:55:28.588Z,2.67
2022-09-18T13:58:38.264Z,2.80
2022-09-18T14:01:10.390Z,4.30
2022-09-18T14:03:41.225Z,2.30
2022-09-18T14:06:47.488Z,2.42
2022-09-18T14:12:19.534Z,3.42
2022-09-18T14:15:19.378Z,1.30
2022-09-18T14:18:17.328Z,2.22
2022-09-18T14:20:52.322Z,2.50
2022-09-18T14:26:09.283Z,2.22
2022-09-18T14:28:37.912Z,4.90
2022-09-18T14:31:32.531Z,5.25
2022-09-18T14:34:12.382Z,2.83
2022-09-18T14:36:47.196Z,5.82
2022-09-18T14:39:26.493Z,3.08
2022-09-18T14:41:57.753Z,3.45
2022-09-18T14:44:27.788Z,4.18
2022-09-18T14:46:58.577Z,1.38
2022-09-18T14:49:39.216Z,0.98
2022-09-18T14:52:40.944Z,3.30
2022-09-18T14:55:19.730Z,2.08
2022-09-18T14:58:06.387Z,0.98
2022-09-18T15:00:36.729Z,2.65
2022-09-18T15:03:20.846Z,0.98
2022-09-18T15:06:04.768Z,1.83
2022-09-18T15:08:31.857Z,2.92
2022-09-18T15:10:59.603Z,2.90
2022-09-18T15:13:37.716Z,2.28
2022-09-18T15:16:04.862Z,2.30
2022-09-18T15:18:42.142Z,3.95
2022-09-18T15:21:32.290Z,1.80
2022-09-18T15:24:02.893Z,2.33
2022-09-18T15:26:41.101Z,1.60
2022-09-18T15:29:23.063Z,1.27
2022-09-18T15:31:51.135Z,1.23
2022-09-18T15:34:26.816Z,2.20
2022-09-18T15:37:01.530Z,1.50
2022-09-18T15:40:15.592Z,1.80
2022-09-18T15:42:58.390Z,1.77
2022-09-18T15:45:28.952Z,2.35
2022-09-18T15:47:58.946Z,1.38
2022-09-18T15:50:34.760Z,2.63
2022-09-18T15:53:26.670Z,2.13
2022-09-18T15:55:58.353Z,4.05
2022-09-18T15:59:03.589Z,6.13
2022-09-18T16:01:47.436Z,2.25
2022-09-18T16:04:33.003Z,1.40
2022-09-18T16:09:50.868Z,1.73
2022-09-18T16:12:29.371Z,2.75
2022-09-18T16:15:17.127Z,1.90
2022-09-18T16:18:19.878Z,1.77
2022-09-18T16:20:49.814Z,2.40
2022-09-18T16:23:52.805Z,2.35
2022-09-18T16:26:33.096Z,3.30
2022-09-18T16:30:00.451Z,1.48
2022-09-18T16:32:27.726Z,1.67
2022-09-18T16:34:54.606Z,1.00
2022-09-18T16:37:22.916Z,1.83
2022-09-18T16:39:49.883Z,2.15
2022-09-18T16:42:29.070Z,2.17
2022-09-18T16:44:55.977Z,1.38
2022-09-18T16:47:26.618Z,1.88
2022-09-18T16:49:53.461Z,2.38
2022-09-18T16:52:20.385Z,1.00
2022-09-18T16:54:58.444Z,1.60
2022-09-18T16:57:27.618Z,1.63
2022-09-18T17:03:16.978Z,2.08
2022-09-18T17:05:42.212Z,3.13
2022-09-18T17:08:09.162Z,1.88
2022-09-18T17:10:36.335Z,1.50
2022-09-18T17:13:04.231Z,1.35
2022-09-18T17:15:31.444Z,1.45
2022-09-18T17:17:58.396Z,1.65
2022-09-18T17:20:25.498Z,1.65
2022-09-18T17:23:05.379Z,2.13
2022-09-18T17:25:32.275Z,1.52
2022-09-18T17:27:59.211Z,1.08
2022-09-18T17:30:26.217Z,1.80
2022-09-18T17:32:53.129Z,2.42
2022-09-18T17:35:20.021Z,3.33
2022-09-18T17:37:46.900Z,1.95
2022-09-18T17:40:13.923Z,2.42
2022-09-18T17:42:41.479Z,1.15
2022-09-18T17:45:09.614Z,0.93
2022-09-18T17:47:36.693Z,0.77
2022-09-18T17:50:05.496Z,0.80
2022-09-18T17:52:36.619Z,0.80
2022-09-18T17:55:04.209Z,1.30
2022-09-18T17:57:31.971Z,2.90
2022-09-18T17:59:59.062Z,1.27
2022-09-18T18:02:26.129Z,2.95
2022-09-18T18:04:53.408Z,1.25
2022-09-18T18:07:20.557Z,1.02
2022-09-18T18:09:50.813Z,0.90
2022-09-18T18:12:18.218Z,1.98
2022-09-18T18:14:45.925Z,0.73
2022-09-18T18:17:14.240Z,1.50
2022-09-18T18:19:41.908Z,2.47
2022-09-18T18:22:08.841Z,0.90
2022-09-18T18:24:35.916Z,0.88
2022-09-18T18:27:04.546Z,1.20
2022-09-18T18:29:31.840Z,1.23
2022-09-18T18:32:00.365Z,1.00
2022-09-18T18:34:27.660Z,2.35
2022-09-18T18:36:54.943Z,0.73
2022-09-18T18:39:21.955Z,0.98
2022-09-18T18:41:49.874Z,2.03
2022-09-18T18:44:17.626Z,0.75
2022-09-18T18:46:45.158Z,1.38
2022-09-18T18:49:15.440Z,2.00
2022-09-18T18:51:47.931Z,1.00
2022-09-18T18:54:20.787Z,1.40
2022-09-18T18:56:49.678Z,1.50
2022-09-18T18:59:19.904Z,1.48
2022-09-18T19:01:47.813Z,1.48
2022-09-18T19:04:22.006Z,1.45
2022-09-18T19:06:49.723Z,1.98
2022-09-18T19:09:21.268Z,0.95
2022-09-18T19:11:52.983Z,1.02
2022-09-18T19:14:28.015Z,2.30
2022-09-18T19:16:55.966Z,1.50
2022-09-18T19:19:26.805Z,1.00
2022-09-18T19:21:59.624Z,0.90
2022-09-18T19:24:28.288Z,1.23
2022-09-18T19:26:55.858Z,1.02
2022-09-18T19:29:23.444Z,0.85
2022-09-18T19:31:53.191Z,1.42
2022-09-18T19:34:22.234Z,0.93
2022-09-18T19:36:51.964Z,2.70
2022-09-18T19:39:24.813Z,1.38
2022-09-18T19:42:03.335Z,3.25
2022-09-18T19:44:38.964Z,1.75
2022-09-18T19:47:27.934Z,1.35
2022-09-18T19:49:58.511Z,1.65
2022-09-18T19:52:28.723Z,1.35
2022-09-18T19:55:03.774Z,0.60
2022-09-18T19:57:31.057Z,0.82
2022-09-18T19:59:59.691Z,1.42
2022-09-18T20:02:27.077Z,2.63
2022-09-18T20:04:54.194Z,1.45
2022-09-18T20:07:21.203Z,1.13
2022-09-18T20:09:48.549Z,2.13
2022-09-18T20:12:15.872Z,1.33
2022-09-18T20:14:42.737Z,1.38
2022-09-18T20:17:10.089Z,1.13
2022-09-18T20:19:37.261Z,0.80
2022-09-18T20:22:05.015Z,1.55
2022-09-18T20:24:32.663Z,1.48
2022-09-18T20:27:00.934Z,1.90
2022-09-18T20:29:28.966Z,1.35
2022-09-18T20:31:56.062Z,3.80
2022-09-18T20:34:24.878Z,1.48
2022-09-18T20:36:52.463Z,0.93
2022-09-18T20:39:19.731Z,1.33
2022-09-18T20:41:47.645Z,1.27
2022-09-18T20:44:15.398Z,2.03
2022-09-18T20:46:42.492Z,2.50
2022-09-18T20:49:11.627Z,1.10
2022-09-18T20:51:38.509Z,1.08
2022-09-18T20:54:07.991Z,1.42
2022-09-18T20:56:42.047Z,2.35
2022-09-18T20:59:19.291Z,1.67
2022-09-18T21:01:47.524Z,1.52
2022-09-18T21:04:18.830Z,1.15
2022-09-18T21:06:56.015Z,1.45
2022-09-18T21:09:29.057Z,3.08
2022-09-18T21:11:59.356Z,2.42
2022-09-18T21:14:27.230Z,2.05
2022-09-18T21:16:55.731Z,0.98
2022-09-18T21:19:26.074Z,1.58
2022-09-18T21:21:53.275Z,3.03
2022-09-18T21:24:21.430Z,1.33
2022-09-18T21:26:50.101Z,2.45
2022-09-18T21:29:29.775Z,2.33
2022-09-18T21:32:00.168Z,2.35
2022-09-18T21:34:31.195Z,2.50
2022-09-18T21:37:01.640Z,1.02
2022-09-18T21:39:30.461Z,1.80
2022-09-18T21:42:00.457Z,1.35
2022-09-18T21:44:31.794Z,1.70
2022-09-18T21:47:04.882Z,2.90
2022-09-18T21:49:32.460Z,1.83
2022-09-18T21:52:05.804Z,1.30
2022-09-18T21:54:33.672Z,1.08
2022-09-18T21:57:01.439Z,1.38
2022-09-18T21:59:32.007Z,1.20
2022-09-18T22:02:00.954Z,1.30
2022-09-18T22:04:32.280Z,2.15
2022-09-18T22:07:01.417Z,1.67
2022-09-18T22:09:33.543Z,1.90
2022-09-18T22:12:04.091Z,2.20
2022-09-18T22:14:34.708Z,2.58
2022-09-18T22:17:06.993Z,1.77
2022-09-18T22:19:38.021Z,1.42
2022-09-18T22:22:05.155Z,1.42
2022-09-18T22:24:32.153Z,3.03
2022-09-18T22:27:03.057Z,1.73
2022-09-18T22:29:34.230Z,1.40
2022-09-18T22:32:02.076Z,1.83
2022-09-18T22:34:32.127Z,0.73
2022-09-18T22:37:00.428Z,1.85
2022-09-18T22:39:28.686Z,1.05
2022-09-18T22:41:56.291Z,3.03
2022-09-18T22:44:23.378Z,3.97
2022-09-18T22:46:52.740Z,1.63
2022-09-18T22:49:21.596Z,2.20
2022-09-18T22:51:48.938Z,4.07
2022-09-18T22:54:16.890Z,2.72
2022-09-18T22:56:51.647Z,1.05
2022-09-18T22:59:22.334Z,1.38
2022-09-18T23:01:54.151Z,1.55
2022-09-18T23:04:24.048Z,2.53
2022-09-18T23:06:51.697Z,1.33
2022-09-18T23:09:19.925Z,1.33
2022-09-18T23:11:50.582Z,2.58
2022-09-18T23:14:25.922Z,0.80
2022-09-18T23:16:53.658Z,1.75
2022-09-18T23:19:33.686Z,2.80
2022-09-18T23:22:01.579Z,1.90
2022-09-18T23:24:28.806Z,4.35
2022-09-18T23:26:58.160Z,3.83
2022-09-18T23:29:27.719Z,2.22
2022-09-18T23:31:58.349Z,2.17
2022-09-18T23:34:30.747Z,0.80
2022-09-18T23:36:58.699Z,4.60
2022-09-18T23:39:32.466Z,0.82
2022-09-18T23:42:02.083Z,1.90
2022-09-18T23:44:31.187Z,5.35
2022-09-18T23:46:59.902Z,2.22
2022-09-18T23:49:27.491Z,1.13
2022-09-18T23:51:55.156Z,2.25
2022-09-18T23:54:29.794Z,3.33
2022-09-18T23:56:57.057Z,1.95
2022-09-18T23:59:25.716Z,1.75
